Current | Forecast
Updated: 8:30 AM CEST on May 25, 2017
Observed at Prague, Czech Republic
Temperature 13°C
Humidity 67%
Dew Point 7°C
Wind WNW at 15 km/h
Pressure 1022 hPa (Steady)
Conditions Scattered Clouds
Visibility 10.0 kilometers
UV 3 out of 16
Clouds Scattered Clouds (SCT) : 1463 m
Yesterday's Maximum 17°C
Yesterday's Minimum 11°C approx.
Yesterday's Heating Degree Days 8 approx.
Sunrise5:09 AM CEST
Sunset8:54 PM CEST
Moon Rise5:19 AM CEST
Moon Set8:19 PM CEST
Moon PhaseMoon Phase
Waning Crescent
Raw METARMETAR LKPR 250630Z 30008KT 9999 SCT048 13/07 Q1022 NOSIG


Monday
. High: 60° F.
Tuesday
. High: 68° F.
Wednesday
. High: 80° F.
Thursday
. High: 57° F.
Friday
. High: 60° F.
Saturday
. High: 62° F.
Sunday
. High: 69° F.
Monday
. High: 59° F.

Units: English | Metric

Find the Weather for any City, State or Zipcode, or Country:

U.S. State List | Severe Weather | Tropical Storms | Ski Conditions
United States | Canada | Central America | South America | Asia | Europe | Australia | Africa | Islands

Weather Underground

© Copyright 2017
The Weather Company, LLC